Terminal Aerodrome Forecast
Issued by NWS Rapid City, SD

Home | Current Version | Previous Version | Graphics & Text | Print | Product List | Glossary On
Versions: 1 2 3 4 5 6 7 8 9 10 11 12 13 14 15
692
FTUS43 KUNR 171720
TAFRAP
TAF
KRAP 171720Z 1718/1818 33018G28KT P6SM SCT200
     FM172200 32010KT P6SM SKC
     FM180100 VRB04KT P6SM SKC
     FM181500 17013KT P6SM SCT200=

USA.gov is the U.S. government's official web portal to all federal, state and local government web resources and services.